sensor_id;sensor_type;location;lat;lon;timestamp;pressure;altitude;pressure_sealevel;temperature;humidity
75359;BME280;64046;51.978;5.934;2023-05-19T00:01:50;102608.97;;;14.74;61.86
75359;BME280;64046;51.978;5.934;2023-05-19T00:04:23;102611.56;;;14.76;61.98
75359;BME280;64046;51.978;5.934;2023-05-19T00:06:55;102604.47;;;14.78;62.04
75359;BME280;64046;51.978;5.934;2023-05-19T00:09:32;102606.88;;;14.84;62.23
75359;BME280;64046;51.978;5.934;2023-05-19T00:12:05;102604.25;;;14.84;62.25
75359;BME280;64046;51.978;5.934;2023-05-19T00:14:39;102604.09;;;14.88;62.19
75359;BME280;64046;51.978;5.934;2023-05-19T00:17:09;102607.16;;;14.76;62.69
75359;BME280;64046;51.978;5.934;2023-05-19T00:19:49;102614.41;;;14.69;62.87
75359;BME280;64046;51.978;5.934;2023-05-19T00:22:21;102611.06;;;14.64;63.17
75359;BME280;64046;51.978;5.934;2023-05-19T00:24:56;102608.13;;;14.74;63.26
75359;BME280;64046;51.978;5.934;2023-05-19T00:27:39;102601.72;;;14.81;62.99
75359;BME280;64046;51.978;5.934;2023-05-19T00:30:18;102608.13;;;14.74;63.96
75359;BME280;64046;51.978;5.934;2023-05-19T00:32:57;102604.06;;;14.63;64.37
75359;BME280;64046;51.978;5.934;2023-05-19T00:35:33;102606.66;;;14.65;64.71
75359;BME280;64046;51.978;5.934;2023-05-19T00:38:07;102595.84;;;14.44;65.18
75359;BME280;64046;51.978;5.934;2023-05-19T00:40:37;102592.44;;;14.41;65.88
75359;BME280;64046;51.978;5.934;2023-05-19T00:43:08;102589.06;;;14.37;66.12
75359;BME280;64046;51.978;5.934;2023-05-19T00:46:00;102588.34;;;14.59;65.53
75359;BME280;64046;51.978;5.934;2023-05-19T00:48:35;102580.72;;;14.49;66.25
75359;BME280;64046;51.978;5.934;2023-05-19T00:51:05;102580.25;;;14.36;67.10
75359;BME280;64046;51.978;5.934;2023-05-19T00:53:39;102573.50;;;14.28;67.43
75359;BME280;64046;51.978;5.934;2023-05-19T00:56:14;102581.25;;;14.32;67.74
75359;BME280;64046;51.978;5.934;2023-05-19T00:58:45;102572.81;;;14.21;68.37
75359;BME280;64046;51.978;5.934;2023-05-19T01:01:20;102577.81;;;14.30;68.34
75359;BME280;64046;51.978;5.934;2023-05-19T01:04:04;102583.94;;;14.31;68.56
75359;BME280;64046;51.978;5.934;2023-05-19T01:06:37;102584.25;;;14.22;68.83
75359;BME280;64046;51.978;5.934;2023-05-19T01:09:11;102576.50;;;14.15;69.36
75359;BME280;64046;51.978;5.934;2023-05-19T01:11:50;102584.91;;;14.28;69.28
75359;BME280;64046;51.978;5.934;2023-05-19T01:14:20;102580.84;;;14.18;69.68
75359;BME280;64046;51.978;5.934;2023-05-19T01:16:57;102589.22;;;14.31;69.56
75359;BME280;64046;51.978;5.934;2023-05-19T01:19:49;102586.69;;;14.28;70.02
75359;BME280;64046;51.978;5.934;2023-05-19T01:22:43;102582.63;;;14.17;70.97
75359;BME280;64046;51.978;5.934;2023-05-19T01:25:38;102582.72;;;14.14;71.12
75359;BME280;64046;51.978;5.934;2023-05-19T01:28:55;102585.22;;;14.19;70.95
75359;BME280;64046;51.978;5.934;2023-05-19T01:31:35;102586.25;;;14.13;71.39
75359;BME280;64046;51.978;5.934;2023-05-19T01:34:07;102590.31;;;13.95;72.32
75359;BME280;64046;51.978;5.934;2023-05-19T01:36:41;102579.59;;;14.01;72.58
75359;BME280;64046;51.978;5.934;2023-05-19T01:39:14;102578.22;;;13.88;73.22
75359;BME280;64046;51.978;5.934;2023-05-19T01:41:48;102589.31;;;13.99;73.19
75359;BME280;64046;51.978;5.934;2023-05-19T01:44:19;102579.09;;;13.89;73.67
75359;BME280;64046;51.978;5.934;2023-05-19T01:46:53;102582.28;;;14.00;73.49
75359;BME280;64046;51.978;5.934;2023-05-19T01:49:26;102586.09;;;13.90;74.08
75359;BME280;64046;51.978;5.934;2023-05-19T01:51:58;102582.50;;;13.92;74.40
75359;BME280;64046;51.978;5.934;2023-05-19T01:54:43;102576.47;;;13.89;74.67
75359;BME280;64046;51.978;5.934;2023-05-19T01:57:17;102580.06;;;13.86;74.86
75359;BME280;64046;51.978;5.934;2023-05-19T01:59:56;102570.25;;;13.91;74.58
75359;BME280;64046;51.978;5.934;2023-05-19T02:02:52;102570.16;;;13.94;73.97
75359;BME280;64046;51.978;5.934;2023-05-19T02:05:32;102576.31;;;13.93;74.35
75359;BME280;64046;51.978;5.934;2023-05-19T02:08:14;102566.69;;;13.92;74.43
75359;BME280;64046;51.978;5.934;2023-05-19T02:11:05;102569.22;;;13.95;74.17
75359;BME280;64046;51.978;5.934;2023-05-19T02:13:42;102570.25;;;13.91;74.64
75359;BME280;64046;51.978;5.934;2023-05-19T02:16:28;102566.06;;;13.84;75.11
75359;BME280;64046;51.978;5.934;2023-05-19T02:19:03;102566.94;;;13.84;75.19
75359;BME280;64046;51.978;5.934;2023-05-19T02:21:34;102563.00;;;13.68;75.60
75359;BME280;64046;51.978;5.934;2023-05-19T02:24:07;102560.97;;;13.78;75.69
75359;BME280;64046;51.978;5.934;2023-05-19T02:26:37;102564.88;;;13.64;76.00
75359;BME280;64046;51.978;5.934;2023-05-19T02:29:07;102558.66;;;13.67;76.01
75359;BME280;64046;51.978;5.934;2023-05-19T02:31:37;102561.22;;;13.70;75.83
75359;BME280;64046;51.978;5.934;2023-05-19T02:34:11;102563.47;;;13.82;75.74
75359;BME280;64046;51.978;5.934;2023-05-19T02:36:44;102568.38;;;13.65;76.11
75359;BME280;64046;51.978;5.934;2023-05-19T02:39:21;102561.00;;;13.76;76.10
75359;BME280;64046;51.978;5.934;2023-05-19T02:41:55;102555.06;;;13.70;76.74
75359;BME280;64046;51.978;5.934;2023-05-19T02:44:27;102550.81;;;13.64;77.22
75359;BME280;64046;51.978;5.934;2023-05-19T02:46:59;102553.00;;;13.51;77.63
75359;BME280;64046;51.978;5.934;2023-05-19T02:49:51;102550.91;;;13.61;77.77
75359;BME280;64046;51.978;5.934;2023-05-19T02:52:22;102546.78;;;13.52;78.36
75359;BME280;64046;51.978;5.934;2023-05-19T02:54:54;102545.09;;;13.49;78.57
75359;BME280;64046;51.978;5.934;2023-05-19T02:57:27;102546.31;;;13.38;78.99
75359;BME280;64046;51.978;5.934;2023-05-19T02:59:58;102541.97;;;13.37;79.04
75359;BME280;64046;51.978;5.934;2023-05-19T03:02:27;102544.56;;;13.38;79.18
75359;BME280;64046;51.978;5.934;2023-05-19T03:05:12;102533.81;;;13.46;79.58
75359;BME280;64046;51.978;5.934;2023-05-19T03:07:42;102545.69;;;13.28;80.03
75359;BME280;64046;51.978;5.934;2023-05-19T03:10:14;102539.44;;;13.32;80.19
75359;BME280;64046;51.978;5.934;2023-05-19T03:12:45;102544.53;;;13.40;80.24
75359;BME280;64046;51.978;5.934;2023-05-19T03:15:27;102551.75;;;13.31;80.22
75359;BME280;64046;51.978;5.934;2023-05-19T03:17:58;102547.22;;;13.38;80.37
75359;BME280;64046;51.978;5.934;2023-05-19T03:20:37;102548.06;;;13.39;80.74
75359;BME280;64046;51.978;5.934;2023-05-19T03:23:09;102554.38;;;13.31;80.99
75359;BME280;64046;51.978;5.934;2023-05-19T03:25:38;102560.63;;;13.27;81.32
75359;BME280;64046;51.978;5.934;2023-05-19T03:28:08;102552.19;;;13.14;82.01
75359;BME280;64046;51.978;5.934;2023-05-19T03:30:40;102551.31;;;13.15;82.00
75359;BME280;64046;51.978;5.934;2023-05-19T03:33:17;102551.03;;;13.25;82.32
75359;BME280;64046;51.978;5.934;2023-05-19T03:35:50;102550.84;;;13.31;82.34
75359;BME280;64046;51.978;5.934;2023-05-19T03:38:25;102548.28;;;13.29;82.31
75359;BME280;64046;51.978;5.934;2023-05-19T03:41:00;102557.13;;;13.27;82.76
75359;BME280;64046;51.978;5.934;2023-05-19T03:43:31;102545.09;;;13.16;82.75
75359;BME280;64046;51.978;5.934;2023-05-19T03:46:11;102545.38;;;13.40;81.88
75359;BME280;64046;51.978;5.934;2023-05-19T03:49:13;102554.03;;;13.45;81.38
75359;BME280;64046;51.978;5.934;2023-05-19T03:52:13;102548.72;;;13.47;81.38
75359;BME280;64046;51.978;5.934;2023-05-19T03:54:58;102543.69;;;13.38;82.04
75359;BME280;64046;51.978;5.934;2023-05-19T03:57:30;102553.72;;;13.23;82.28
75359;BME280;64046;51.978;5.934;2023-05-19T04:00:07;102548.81;;;13.42;82.17
75359;BME280;64046;51.978;5.934;2023-05-19T04:02:47;102553.09;;;13.46;81.86
75359;BME280;64046;51.978;5.934;2023-05-19T04:05:18;102563.06;;;13.33;82.19
75359;BME280;64046;51.978;5.934;2023-05-19T04:07:51;102553.09;;;13.46;81.75
75359;BME280;64046;51.978;5.934;2023-05-19T04:10:35;102569.94;;;13.41;82.19
75359;BME280;64046;51.978;5.934;2023-05-19T04:13:10;102566.16;;;13.51;81.84
75359;BME280;64046;51.978;5.934;2023-05-19T04:15:43;102568.66;;;13.56;81.60
75359;BME280;64046;51.978;5.934;2023-05-19T04:18:14;102575.16;;;13.42;81.67
75359;BME280;64046;51.978;5.934;2023-05-19T04:20:44;102565.38;;;13.47;81.52
75359;BME280;64046;51.978;5.934;2023-05-19T04:23:27;102567.50;;;13.64;81.22
75359;BME280;64046;51.978;5.934;2023-05-19T04:26:00;102574.94;;;13.50;81.21
75359;BME280;64046;51.978;5.934;2023-05-19T04:28:32;102566.97;;;13.53;81.32
75359;BME280;64046;51.978;5.934;2023-05-19T04:31:09;102571.66;;;13.73;80.85
75359;BME280;64046;51.978;5.934;2023-05-19T04:33:40;102564.88;;;13.64;80.51
75359;BME280;64046;51.978;5.934;2023-05-19T04:36:10;102569.88;;;13.74;80.13
75359;BME280;64046;51.978;5.934;2023-05-19T04:38:55;102563.78;;;14.01;78.73
75359;BME280;64046;51.978;5.934;2023-05-19T04:41:30;102560.03;;;13.80;79.38
75359;BME280;64046;51.978;5.934;2023-05-19T04:44:02;102561.72;;;13.83;79.18
75359;BME280;64046;51.978;5.934;2023-05-19T04:46:33;102558.19;;;13.82;78.91
75359;BME280;64046;51.978;5.934;2023-05-19T04:49:05;102550.16;;;13.87;78.65
75359;BME280;64046;51.978;5.934;2023-05-19T04:51:41;102550.22;;;13.86;78.48
75359;BME280;64046;51.978;5.934;2023-05-19T04:54:15;102549.66;;;14.04;77.73
75359;BME280;64046;51.978;5.934;2023-05-19T04:56:48;102547.44;;;13.90;78.07
75359;BME280;64046;51.978;5.934;2023-05-19T04:59:23;102546.91;;;14.07;77.62
75359;BME280;64046;51.978;5.934;2023-05-19T05:01:54;102551.56;;;13.99;77.69
75359;BME280;64046;51.978;5.934;2023-05-19T05:04:30;102549.31;;;14.15;77.07
75359;BME280;64046;51.978;5.934;2023-05-19T05:07:04;102549.59;;;14.06;76.90
75359;BME280;64046;51.978;5.934;2023-05-19T05:09:39;102551.50;;;14.29;76.07
75359;BME280;64046;51.978;5.934;2023-05-19T05:12:11;102554.94;;;14.31;75.82
75359;BME280;64046;51.978;5.934;2023-05-19T05:14:43;102556.47;;;14.38;75.39
75359;BME280;64046;51.978;5.934;2023-05-19T05:17:17;102559.00;;;14.41;74.97
75359;BME280;64046;51.978;5.934;2023-05-19T05:19:54;102556.97;;;14.49;74.58
75359;BME280;64046;51.978;5.934;2023-05-19T05:22:35;102561.50;;;14.46;74.19
75359;BME280;64046;51.978;5.934;2023-05-19T05:25:13;102564.47;;;14.63;73.38
75359;BME280;64046;51.978;5.934;2023-05-19T05:27:44;102565.81;;;14.48;73.20
75359;BME280;64046;51.978;5.934;2023-05-19T05:30:17;102566.25;;;14.61;72.90
75359;BME280;64046;51.978;5.934;2023-05-19T05:32:58;102566.69;;;14.76;72.50
75359;BME280;64046;51.978;5.934;2023-05-19T05:35:36;102564.09;;;14.74;71.56
75359;BME280;64046;51.978;5.934;2023-05-19T05:38:07;102570.16;;;14.78;71.15
75359;BME280;64046;51.978;5.934;2023-05-19T05:40:45;102569.25;;;15.04;70.44
75359;BME280;64046;51.978;5.934;2023-05-19T05:43:16;102578.25;;;14.98;70.03
75359;BME280;64046;51.978;5.934;2023-05-19T05:46:01;102574.91;;;15.18;69.31
75359;BME280;64046;51.978;5.934;2023-05-19T05:48:32;102571.53;;;15.15;68.77
75359;BME280;64046;51.978;5.934;2023-05-19T05:51:04;102572.91;;;15.25;68.51
75359;BME280;64046;51.978;5.934;2023-05-19T05:53:43;102574.38;;;15.34;68.12
75359;BME280;64046;51.978;5.934;2023-05-19T05:56:20;102571.22;;;15.48;67.44
75359;BME280;64046;51.978;5.934;2023-05-19T05:58:53;102574.94;;;15.42;67.48
75359;BME280;64046;51.978;5.934;2023-05-19T06:01:30;102573.00;;;15.71;66.32
75359;BME280;64046;51.978;5.934;2023-05-19T06:04:10;102566.34;;;15.61;65.86
75359;BME280;64046;51.978;5.934;2023-05-19T06:06:43;102568.25;;;15.81;65.08
75359;BME280;64046;51.978;5.934;2023-05-19T06:09:19;102566.53;;;15.80;64.70
75359;BME280;64046;51.978;5.934;2023-05-19T06:11:53;102569.56;;;15.93;64.13
75359;BME280;64046;51.978;5.934;2023-05-19T06:14:25;102568.94;;;15.86;63.75
75359;BME280;64046;51.978;5.934;2023-05-19T06:17:14;102561.56;;;15.94;62.65
75359;BME280;64046;51.978;5.934;2023-05-19T06:19:44;102565.69;;;16.01;62.12
75359;BME280;64046;51.978;5.934;2023-05-19T06:22:17;102562.25;;;16.21;61.25
75359;BME280;64046;51.978;5.934;2023-05-19T06:24:51;102565.03;;;16.18;60.67
75359;BME280;64046;51.978;5.934;2023-05-19T06:27:33;102567.44;;;16.47;59.42
75359;BME280;64046;51.978;5.934;2023-05-19T06:30:04;102569.53;;;16.38;59.41
75359;BME280;64046;51.978;5.934;2023-05-19T06:32:44;102569.25;;;16.44;58.97
75359;BME280;64046;51.978;5.934;2023-05-19T06:35:21;102566.84;;;16.60;57.71
75359;BME280;64046;51.978;5.934;2023-05-19T06:37:50;102569.03;;;16.71;57.12
75359;BME280;64046;51.978;5.934;2023-05-19T06:40:21;102568.19;;;16.71;56.86
75359;BME280;64046;51.978;5.934;2023-05-19T06:42:53;102569.13;;;16.90;56.21
75359;BME280;64046;51.978;5.934;2023-05-19T06:45:41;102568.59;;;16.82;56.14
75359;BME280;64046;51.978;5.934;2023-05-19T06:48:15;102566.44;;;16.92;55.66
75359;BME280;64046;51.978;5.934;2023-05-19T06:50:53;102563.94;;;17.09;54.49
75359;BME280;64046;51.978;5.934;2023-05-19T06:53:25;102566.66;;;17.08;54.39
75359;BME280;64046;51.978;5.934;2023-05-19T06:55:55;102562.91;;;17.12;54.07
75359;BME280;64046;51.978;5.934;2023-05-19T06:58:39;102569.50;;;17.43;53.38
75359;BME280;64046;51.978;5.934;2023-05-19T07:01:11;102570.56;;;17.39;53.02
75359;BME280;64046;51.978;5.934;2023-05-19T07:03:50;102566.84;;;17.62;52.85
75359;BME280;64046;51.978;5.934;2023-05-19T07:06:24;102565.09;;;17.62;52.03
75359;BME280;64046;51.978;5.934;2023-05-19T07:08:55;102559.28;;;17.73;51.92
75359;BME280;64046;51.978;5.934;2023-05-19T07:11:30;102564.31;;;17.98;50.30
75359;BME280;64046;51.978;5.934;2023-05-19T07:14:08;102568.75;;;17.98;50.46
75359;BME280;64046;51.978;5.934;2023-05-19T07:16:38;102570.84;;;17.91;50.68
75359;BME280;64046;51.978;5.934;2023-05-19T07:19:10;102575.78;;;17.99;50.92
75359;BME280;64046;51.978;5.934;2023-05-19T07:21:46;102567.97;;;17.96;50.73
75359;BME280;64046;51.978;5.934;2023-05-19T07:24:19;102569.47;;;18.02;50.91
75359;BME280;64046;51.978;5.934;2023-05-19T07:26:54;102577.19;;;17.87;51.09
75359;BME280;64046;51.978;5.934;2023-05-19T07:29:28;102577.81;;;17.94;51.35
75359;BME280;64046;51.978;5.934;2023-05-19T07:32:01;102573.19;;;17.97;51.46
75359;BME280;64046;51.978;5.934;2023-05-19T07:34:45;102579.59;;;18.12;51.71
75359;BME280;64046;51.978;5.934;2023-05-19T07:37:19;102577.13;;;18.27;51.47
75359;BME280;64046;51.978;5.934;2023-05-19T07:39:49;102578.75;;;18.29;51.43
75359;BME280;64046;51.978;5.934;2023-05-19T07:42:28;102571.53;;;18.50;50.42
75359;BME280;64046;51.978;5.934;2023-05-19T07:45:14;102568.94;;;18.66;49.23
75359;BME280;64046;51.978;5.934;2023-05-19T07:47:50;102573.84;;;18.57;49.40
75359;BME280;64046;51.978;5.934;2023-05-19T07:50:34;102574.00;;;18.90;48.84
75359;BME280;64046;51.978;5.934;2023-05-19T07:53:05;102571.59;;;18.84;48.52
75359;BME280;64046;51.978;5.934;2023-05-19T07:55:38;102574.47;;;18.98;48.40
75359;BME280;64046;51.978;5.934;2023-05-19T07:58:10;102561.22;;;19.14;47.99
75359;BME280;64046;51.978;5.934;2023-05-19T08:01:02;102566.63;;;19.46;47.20
75359;BME280;64046;51.978;5.934;2023-05-19T08:03:34;102568.50;;;19.44;46.54
75359;BME280;64046;51.978;5.934;2023-05-19T08:06:04;102554.97;;;19.49;46.54
75359;BME280;64046;51.978;5.934;2023-05-19T08:08:51;102546.75;;;19.85;45.28
75359;BME280;64046;51.978;5.934;2023-05-19T08:11:36;102548.88;;;19.63;45.21
75359;BME280;64046;51.978;5.934;2023-05-19T08:14:06;102556.78;;;19.64;45.28
75359;BME280;64046;51.978;5.934;2023-05-19T08:16:47;102554.41;;;19.92;44.79
75359;BME280;64046;51.978;5.934;2023-05-19T08:19:20;102538.09;;;19.82;45.06
75359;BME280;64046;51.978;5.934;2023-05-19T08:21:50;102561.03;;;20.00;44.78
75359;BME280;64046;51.978;5.934;2023-05-19T08:24:31;102550.22;;;20.34;43.57
75359;BME280;64046;51.978;5.934;2023-05-19T08:27:04;102542.78;;;20.25;43.74
75359;BME280;64046;51.978;5.934;2023-05-19T08:29:37;102537.53;;;20.23;43.78
75359;BME280;64046;51.978;5.934;2023-05-19T08:32:21;102537.75;;;20.50;43.42
75359;BME280;64046;51.978;5.934;2023-05-19T08:34:52;102549.47;;;20.32;43.39
75359;BME280;64046;51.978;5.934;2023-05-19T08:37:28;102532.84;;;20.43;42.74
75359;BME280;64046;51.978;5.934;2023-05-19T08:40:03;102538.97;;;20.29;43.08
75359;BME280;64046;51.978;5.934;2023-05-19T08:42:39;102534.31;;;20.48;42.70
75359;BME280;64046;51.978;5.934;2023-05-19T08:45:18;102537.56;;;20.53;42.05
75359;BME280;64046;51.978;5.934;2023-05-19T08:47:51;102526.81;;;20.55;42.13
75359;BME280;64046;51.978;5.934;2023-05-19T08:50:31;102526.34;;;20.63;41.63
75359;BME280;64046;51.978;5.934;2023-05-19T08:53:14;102525.56;;;20.77;41.42
75359;BME280;64046;51.978;5.934;2023-05-19T08:56:04;102526.16;;;20.96;41.74
75359;BME280;64046;51.978;5.934;2023-05-19T08:58:58;102516.06;;;21.01;39.93
75359;BME280;64046;51.978;5.934;2023-05-19T09:01:31;102518.81;;;20.85;40.53
75359;BME280;64046;51.978;5.934;2023-05-19T09:04:10;102514.06;;;21.05;40.16
75359;BME280;64046;51.978;5.934;2023-05-19T09:06:40;102513.00;;;20.93;40.00
75359;BME280;64046;51.978;5.934;2023-05-19T09:09:20;102505.09;;;21.20;39.32
75359;BME280;64046;51.978;5.934;2023-05-19T09:11:51;102508.94;;;21.16;39.48
75359;BME280;64046;51.978;5.934;2023-05-19T09:14:34;102508.72;;;21.34;38.06
75359;BME280;64046;51.978;5.934;2023-05-19T09:17:13;102512.94;;;21.23;38.04
75359;BME280;64046;51.978;5.934;2023-05-19T09:20:03;102503.59;;;21.31;37.16
75359;BME280;64046;51.978;5.934;2023-05-19T09:22:53;102500.25;;;21.27;37.40
75359;BME280;64046;51.978;5.934;2023-05-19T09:25:26;102500.66;;;21.21;37.23
75359;BME280;64046;51.978;5.934;2023-05-19T09:28:00;102498.53;;;21.26;37.36
75359;BME280;64046;51.978;5.934;2023-05-19T09:30:34;102488.25;;;21.34;37.77
75359;BME280;64046;51.978;5.934;2023-05-19T09:33:07;102494.69;;;21.59;36.42
75359;BME280;64046;51.978;5.934;2023-05-19T09:35:45;102486.59;;;21.60;36.42
75359;BME280;64046;51.978;5.934;2023-05-19T09:38:25;102480.41;;;21.60;36.06
75359;BME280;64046;51.978;5.934;2023-05-19T09:40:59;102478.16;;;21.54;36.44
75359;BME280;64046;51.978;5.934;2023-05-19T09:43:32;102477.84;;;21.58;36.73
75359;BME280;64046;51.978;5.934;2023-05-19T09:46:07;102479.56;;;21.87;36.30
75359;BME280;64046;51.978;5.934;2023-05-19T09:48:43;102490.28;;;21.72;36.17
75359;BME280;64046;51.978;5.934;2023-05-19T09:51:21;102477.22;;;21.82;36.15
75359;BME280;64046;51.978;5.934;2023-05-19T09:54:00;102489.72;;;21.67;36.43
75359;BME280;64046;51.978;5.934;2023-05-19T09:56:31;102483.97;;;21.73;36.22
75359;BME280;64046;51.978;5.934;2023-05-19T09:59:08;102488.09;;;21.65;36.45
75359;BME280;64046;51.978;5.934;2023-05-19T10:01:41;102480.41;;;21.60;36.37
75359;BME280;64046;51.978;5.934;2023-05-19T10:04:17;102492.56;;;21.78;36.14
75359;BME280;64046;51.978;5.934;2023-05-19T10:06:55;102473.31;;;21.73;36.45
75359;BME280;64046;51.978;5.934;2023-05-19T10:09:33;102480.41;;;21.60;36.13
75359;BME280;64046;51.978;5.934;2023-05-19T10:12:14;102488.81;;;21.54;36.63
75359;BME280;64046;51.978;5.934;2023-05-19T10:14:49;102470.41;;;21.64;36.64
75359;BME280;64046;51.978;5.934;2023-05-19T10:17:28;102495.06;;;21.67;36.25
75359;BME280;64046;51.978;5.934;2023-05-19T10:20:02;102471.94;;;21.53;36.21
75359;BME280;64046;51.978;5.934;2023-05-19T10:22:38;102476.50;;;21.66;36.03
75359;BME280;64046;51.978;5.934;2023-05-19T10:25:09;102474.13;;;21.61;36.03
75359;BME280;64046;51.978;5.934;2023-05-19T10:27:50;102458.13;;;21.61;35.55
75359;BME280;64046;51.978;5.934;2023-05-19T10:30:30;102448.00;;;21.66;36.29
75359;BME280;64046;51.978;5.934;2023-05-19T10:33:19;102442.53;;;21.82;36.12
75359;BME280;64046;51.978;5.934;2023-05-19T10:36:04;102445.38;;;21.79;35.58
75359;BME280;64046;51.978;5.934;2023-05-19T10:38:47;102447.03;;;21.67;35.85
75359;BME280;64046;51.978;5.934;2023-05-19T10:41:27;102447.00;;;21.54;36.04
75359;BME280;64046;51.978;5.934;2023-05-19T10:44:08;102447.66;;;21.58;35.26
75359;BME280;64046;51.978;5.934;2023-05-19T10:46:52;102449.72;;;21.67;35.00
75359;BME280;64046;51.978;5.934;2023-05-19T10:49:33;102450.38;;;21.71;35.14
75359;BME280;64046;51.978;5.934;2023-05-19T10:52:19;102451.00;;;21.74;34.95
75359;BME280;64046;51.978;5.934;2023-05-19T10:55:00;102447.59;;;21.72;35.38
75359;BME280;64046;51.978;5.934;2023-05-19T10:57:33;102442.38;;;21.71;35.39
75359;BME280;64046;51.978;5.934;2023-05-19T11:00:28;102443.72;;;21.91;34.75
75359;BME280;64046;51.978;5.934;2023-05-19T11:03:16;102437.97;;;21.97;35.49
75359;BME280;64046;51.978;5.934;2023-05-19T11:05:52;102428.03;;;21.99;35.51
75359;BME280;64046;51.978;5.934;2023-05-19T11:08:31;102442.25;;;22.00;35.66
75359;BME280;64046;51.978;5.934;2023-05-19T11:11:14;102429.13;;;22.09;35.43
75359;BME280;64046;51.978;5.934;2023-05-19T11:13:47;102429.75;;;22.00;35.39
75359;BME280;64046;51.978;5.934;2023-05-19T11:16:31;102435.00;;;22.15;34.97
75359;BME280;64046;51.978;5.934;2023-05-19T11:19:05;102426.56;;;22.08;35.12
75359;BME280;64046;51.978;5.934;2023-05-19T11:21:49;102429.34;;;22.19;35.14
75359;BME280;64046;51.978;5.934;2023-05-19T11:24:35;102435.91;;;22.28;34.98
75359;BME280;64046;51.978;5.934;2023-05-19T11:27:25;102427.06;;;22.40;35.22
75359;BME280;64046;51.978;5.934;2023-05-19T11:30:00;102426.53;;;22.35;34.71
75359;BME280;64046;51.978;5.934;2023-05-19T11:32:34;102421.53;;;22.16;34.52
75359;BME280;64046;51.978;5.934;2023-05-19T11:37:56;102410.00;;;22.03;34.22
75359;BME280;64046;51.978;5.934;2023-05-19T11:40:27;102414.56;;;22.01;34.41
75359;BME280;64046;51.978;5.934;2023-05-19T11:43:16;102414.19;;;22.20;34.48
75359;BME280;64046;51.978;5.934;2023-05-19T11:45:45;102421.75;;;22.13;34.28
75359;BME280;64046;51.978;5.934;2023-05-19T11:48:17;102408.72;;;22.08;34.41
75359;BME280;64046;51.978;5.934;2023-05-19T11:50:50;102404.69;;;22.16;34.23
75359;BME280;64046;51.978;5.934;2023-05-19T11:53:22;102409.38;;;22.25;34.37
75359;BME280;64046;51.978;5.934;2023-05-19T11:55:54;102400.97;;;22.31;34.10
75359;BME280;64046;51.978;5.934;2023-05-19T11:58:33;102400.56;;;22.50;33.92
75359;BME280;64046;51.978;5.934;2023-05-19T12:01:05;102407.63;;;22.38;33.64
75359;BME280;64046;51.978;5.934;2023-05-19T12:03:35;102405.34;;;22.45;34.23
75359;BME280;64046;51.978;5.934;2023-05-19T12:06:08;102404.41;;;22.59;34.13
75359;BME280;64046;51.978;5.934;2023-05-19T12:08:39;102399.38;;;22.54;34.06
75359;BME280;64046;51.978;5.934;2023-05-19T12:11:09;102400.00;;;22.58;34.62
75359;BME280;64046;51.978;5.934;2023-05-19T12:13:54;102418.50;;;22.74;33.67
75359;BME280;64046;51.978;5.934;2023-05-19T12:16:36;102394.38;;;22.62;33.41
75359;BME280;64046;51.978;5.934;2023-05-19T12:19:08;102406.84;;;22.36;33.68
75359;BME280;64046;51.978;5.934;2023-05-19T12:21:41;102402.38;;;22.37;33.82
75359;BME280;64046;51.978;5.934;2023-05-19T12:24:23;102400.41;;;22.26;33.62
75359;BME280;64046;51.978;5.934;2023-05-19T12:27:08;102399.91;;;22.46;33.85
75359;BME280;64046;51.978;5.934;2023-05-19T12:29:48;102392.66;;;22.49;33.58
75359;BME280;64046;51.978;5.934;2023-05-19T12:32:22;102391.16;;;22.44;33.34
75359;BME280;64046;51.978;5.934;2023-05-19T12:34:54;102400.00;;;22.45;33.25
75359;BME280;64046;51.978;5.934;2023-05-19T12:37:28;102395.66;;;22.57;33.24
75359;BME280;64046;51.978;5.934;2023-05-19T12:40:01;102390.59;;;22.52;33.46
75359;BME280;64046;51.978;5.934;2023-05-19T12:42:34;102389.66;;;22.40;33.66
75359;BME280;64046;51.978;5.934;2023-05-19T12:45:08;102389.41;;;22.69;33.74
75359;BME280;64046;51.978;5.934;2023-05-19T12:47:49;102374.88;;;22.73;33.60
75359;BME280;64046;51.978;5.934;2023-05-19T12:50:28;102378.47;;;22.85;33.40
75359;BME280;64046;51.978;5.934;2023-05-19T12:53:01;102370.50;;;22.72;33.40
75359;BME280;64046;51.978;5.934;2023-05-19T12:55:37;102367.75;;;22.98;33.43
75359;BME280;64046;51.978;5.934;2023-05-19T12:58:08;102369.16;;;22.91;33.56
75359;BME280;64046;51.978;5.934;2023-05-19T13:00:43;102381.69;;;22.90;33.64
75359;BME280;64046;51.978;5.934;2023-05-19T13:03:15;102375.56;;;22.64;33.69
75359;BME280;64046;51.978;5.934;2023-05-19T13:05:48;102375.97;;;22.58;33.07
75359;BME280;64046;51.978;5.934;2023-05-19T13:08:23;102364.22;;;22.60;33.58
75359;BME280;64046;51.978;5.934;2023-05-19T13:11:00;102360.78;;;22.71;33.17
75359;BME280;64046;51.978;5.934;2023-05-19T13:13:33;102360.00;;;22.82;33.39
75359;BME280;64046;51.978;5.934;2023-05-19T13:16:06;102353.56;;;22.97;33.62
75359;BME280;64046;51.978;5.934;2023-05-19T13:18:38;102356.69;;;22.91;33.29
75359;BME280;64046;51.978;5.934;2023-05-19T13:21:12;102348.88;;;22.88;33.35
75359;BME280;64046;51.978;5.934;2023-05-19T13:23:44;102346.38;;;22.98;33.63
75359;BME280;64046;51.978;5.934;2023-05-19T13:26:23;102346.53;;;22.84;33.71
75359;BME280;64046;51.978;5.934;2023-05-19T13:28:54;102336.78;;;22.95;33.98
75359;BME280;64046;51.978;5.934;2023-05-19T13:31:39;102353.56;;;22.97;34.07
75359;BME280;64046;51.978;5.934;2023-05-19T13:34:17;102338.09;;;22.90;33.73
75359;BME280;64046;51.978;5.934;2023-05-19T13:36:49;102345.94;;;22.67;33.39
75359;BME280;64046;51.978;5.934;2023-05-19T13:39:19;102344.22;;;22.66;33.41
75359;BME280;64046;51.978;5.934;2023-05-19T13:41:52;102345.91;;;22.80;33.26